Time;durP1;ratioP1;P1;durP2;ratioP2;P2;SDS_P1;SDS_P2;PMS_P1;PMS_P2;Temp;Humidity;BMP_temperature;BMP_pressure;BME280_temperature;BME280_humidity;BME280_pressure;Samples;Min_cycle;Max_cycle;Signal;HPM_P1;HPM_P2
2023/01/07 05:05:21;;;;;;;3.35;3.08;;;9.30;99.90;;;;;;5221859;23;20732;-74
2023/01/07 05:07:47;;;;;;;3.57;3.17;;;9.30;99.90;;;;;;4955254;29;20169;-73
2023/01/07 05:10:12;;;;;;;3.70;3.33;;;9.30;99.90;;;;;;4955210;29;20623;-71
2023/01/07 05:12:39;;;;;;;2.40;2.20;;;9.30;99.90;;;;;;4925267;29;20201;-73
2023/01/07 05:15:06;;;;;;;3.10;2.90;;;9.30;99.90;;;;;;4959340;28;20200;-72
2023/01/07 05:17:32;;;;;;;2.92;2.72;;;9.30;99.90;;;;;;4932215;29;20691;-68
2023/01/07 05:19:58;;;;;;;4.10;3.20;;;9.30;99.90;;;;;;4918964;29;20268;-70
2023/01/07 05:22:23;;;;;;;2.70;2.50;;;9.30;99.90;;;;;;4937879;29;20317;-71
2023/01/07 05:24:49;;;;;;;3.50;3.20;;;9.30;99.90;;;;;;4939272;29;20204;-71
2023/01/07 05:27:14;;;;;;;2.77;2.60;;;9.30;99.90;;;;;;4940011;29;20192;-72
2023/01/07 05:29:40;;;;;;;2.83;2.27;;;9.30;99.90;;;;;;4922445;29;20652;-71
2023/01/07 05:32:05;;;;;;;3.10;2.80;;;9.30;99.90;;;;;;4939689;29;20193;-71
2023/01/07 05:34:31;;;;;;;2.73;2.53;;;9.30;99.90;;;;;;4938054;29;20194;-70
2023/01/07 05:36:57;;;;;;;3.90;3.70;;;9.30;99.90;;;;;;4922584;29;20727;-72
2023/01/07 05:39:22;;;;;;;2.53;2.33;;;9.30;99.90;;;;;;4922394;29;20197;-71
2023/01/07 05:41:48;;;;;;;2.87;2.67;;;9.30;99.90;;;;;;4922396;29;20243;-71
2023/01/07 05:44:13;;;;;;;2.60;2.40;;;9.30;99.90;;;;;;4922080;29;20679;-70
2023/01/07 05:46:39;;;;;;;2.77;2.57;;;9.30;99.90;;;;;;4939463;29;20343;-70
2023/01/07 05:49:05;;;;;;;2.73;2.53;;;9.30;99.90;;;;;;4922323;29;20216;-72
2023/01/07 05:51:30;;;;;;;2.97;2.77;;;9.30;99.90;;;;;;4939249;29;20579;-70
2023/01/07 05:53:56;;;;;;;3.60;2.47;;;9.30;99.90;;;;;;4938859;29;20216;-71
2023/01/07 05:56:22;;;;;;;2.47;2.37;;;9.30;99.90;;;;;;4922284;29;20647;-71
2023/01/07 05:58:47;;;;;;;3.23;3.00;;;9.30;99.90;;;;;;4939245;29;20540;-71
2023/01/07 06:01:13;;;;;;;3.90;3.50;;;9.30;99.90;;;;;;4939480;29;20214;-71
2023/01/07 06:03:39;;;;;;;2.50;2.40;;;9.30;99.90;;;;;;4938780;29;20186;-70
2023/01/07 06:06:07;;;;;;;2.70;2.50;;;9.30;99.90;;;;;;4938919;29;20220;-69
2023/01/07 06:08:38;;;;;;;2.92;2.83;;;9.30;99.90;;;;;;4921902;29;20191;-72
2023/01/07 06:11:05;;;;;;;3.10;2.30;;;9.30;99.90;;;;;;4921929;29;20177;-73
2023/01/07 06:13:31;;;;;;;4.40;3.55;;;9.30;99.90;;;;;;4938384;29;20202;-72
2023/01/07 06:16:05;;;;;;;3.58;2.78;;;9.30;99.90;;;;;;4938809;29;20221;-72
2023/01/07 06:18:32;;;;;;;2.13;2.03;;;9.30;99.90;;;;;;4921689;29;20256;-69
2023/01/07 06:20:57;;;;;;;3.42;2.60;;;9.30;99.90;;;;;;4938706;29;20184;-71
2023/01/07 06:23:23;;;;;;;2.93;2.27;;;9.30;99.90;;;;;;4938261;29;20248;-74
2023/01/07 06:25:49;;;;;;;3.07;2.87;;;9.30;99.90;;;;;;4939028;29;20264;-72
2023/01/07 06:28:14;;;;;;;3.17;2.90;;;9.30;99.90;;;;;;4938563;29;20174;-72
2023/01/07 06:30:40;;;;;;;2.63;2.43;;;9.30;99.90;;;;;;4938754;29;20272;-70
2023/01/07 06:33:06;;;;;;;2.57;2.37;;;9.30;99.90;;;;;;4938115;29;20270;-71
2023/01/07 06:35:32;;;;;;;2.40;2.30;;;9.30;99.90;;;;;;4938530;29;20190;-72
2023/01/07 06:38:00;;;;;;;2.50;2.30;;;9.30;99.90;;;;;;4938305;29;20648;-72
2023/01/07 06:40:26;;;;;;;4.15;2.45;;;9.30;99.90;;;;;;4938292;29;20505;-72
2023/01/07 06:42:52;;;;;;;2.15;2.00;;;9.30;99.90;;;;;;4937866;29;20667;-69
2023/01/07 06:45:17;;;;;;;1.87;1.77;;;9.30;99.90;;;;;;4938156;29;20201;-74
2023/01/07 06:47:44;;;;;;;1.23;1.07;;;9.30;99.90;;;;;;4938495;29;20415;-72
2023/01/07 06:50:10;;;;;;;1.70;1.60;;;9.30;99.90;;;;;;4921339;29;20284;-71
2023/01/07 06:52:36;;;;;;;1.80;1.40;;;9.30;99.90;;;;;;4937902;29;20197;-71
2023/01/07 06:55:02;;;;;;;2.30;1.90;;;9.40;99.90;;;;;;4938023;29;20193;-71
2023/01/07 06:57:28;;;;;;;2.22;1.75;;;9.30;99.90;;;;;;4938284;29;20536;-71
2023/01/07 06:59:53;;;;;;;1.50;1.40;;;9.30;99.90;;;;;;4938233;29;20165;-70
2023/01/07 07:02:21;;;;;;;1.83;1.73;;;9.40;99.90;;;;;;4938277;29;20180;-71
2023/01/07 07:04:47;;;;;;;1.50;1.40;;;9.40;99.90;;;;;;4937636;29;20196;-71
2023/01/07 07:07:13;;;;;;;2.30;2.10;;;9.40;99.90;;;;;;4951714;29;20185;-72
2023/01/07 07:09:39;;;;;;;2.70;2.03;;;9.40;99.90;;;;;;4957226;29;20199;-71
2023/01/07 07:12:05;;;;;;;1.50;1.50;;;9.40;99.90;;;;;;4957076;29;20506;-70
2023/01/07 07:14:30;;;;;;;1.30;1.30;;;9.40;99.90;;;;;;4939365;29;20757;-72
2023/01/07 07:16:56;;;;;;;1.80;1.70;;;9.40;99.90;;;;;;4939835;29;20261;-72
2023/01/07 07:19:22;;;;;;;1.70;1.60;;;9.40;99.90;;;;;;4956839;29;20197;-71
2023/01/07 07:21:47;;;;;;;1.23;1.13;;;9.40;99.90;;;;;;4956936;29;20215;-72
2023/01/07 07:24:13;;;;;;;1.13;1.13;;;9.50;99.90;;;;;;4956409;28;20280;-69
2023/01/07 07:26:39;;;;;;;2.00;1.90;;;9.50;99.90;;;;;;4956937;29;20919;-71
2023/01/07 07:29:05;;;;;;;1.80;1.70;;;9.50;99.90;;;;;;4956871;29;20515;-72
2023/01/07 07:31:30;;;;;;;2.30;1.60;;;9.50;99.90;;;;;;4956562;29;20207;-74
2023/01/07 07:33:56;;;;;;;0.77;0.77;;;9.50;99.90;;;;;;4956195;28;20217;-72
2023/01/07 07:36:22;;;;;;;0.90;0.90;;;9.50;99.90;;;;;;4956826;29;20248;-70
2023/01/07 07:38:47;;;;;;;0.90;0.90;;;9.50;99.90;;;;;;4956727;29;20308;-69
2023/01/07 07:41:13;;;;;;;0.80;0.70;;;9.50;99.90;;;;;;4956644;29;20176;-70
2023/01/07 07:43:39;;;;;;;1.53;1.07;;;9.50;99.90;;;;;;4956011;28;20239;-73
2023/01/07 07:46:04;;;;;;;1.10;1.10;;;9.60;99.90;;;;;;4938856;29;20185;-71
2023/01/07 07:48:30;;;;;;;0.70;0.70;;;9.60;99.90;;;;;;4956478;29;20263;-71
2023/01/07 07:50:56;;;;;;;1.80;1.70;;;9.60;99.90;;;;;;4956253;29;20173;-70
2023/01/07 07:53:22;;;;;;;2.80;2.40;;;9.60;99.90;;;;;;4938442;28;20219;-71
2023/01/07 07:55:47;;;;;;;0.80;0.80;;;9.70;99.90;;;;;;4956624;29;20436;-67
2023/01/07 07:58:13;;;;;;;0.73;0.73;;;9.60;99.90;;;;;;4956168;29;20653;-70
2023/01/07 08:00:39;;;;;;;0.93;0.93;;;9.60;99.90;;;;;;4956235;29;20670;-70
2023/01/07 08:03:04;;;;;;;0.80;0.80;;;9.70;99.90;;;;;;4955578;29;20459;-68
2023/01/07 08:05:30;;;;;;;1.33;1.23;;;9.70;99.90;;;;;;4955635;28;20582;-71
2023/01/07 08:07:57;;;;;;;1.20;1.10;;;9.70;99.90;;;;;;4936916;29;20181;-69
2023/01/07 08:10:24;;;;;;;1.40;1.00;;;9.70;99.90;;;;;;4936733;29;20252;-69
2023/01/07 08:12:50;;;;;;;1.63;1.52;;;9.80;99.90;;;;;;4936375;29;20197;-68
2023/01/07 08:15:16;;;;;;;1.20;1.20;;;9.80;99.90;;;;;;4936545;29;20192;-70
2023/01/07 08:17:42;;;;;;;0.80;0.75;;;9.80;99.90;;;;;;4936454;29;20173;-72
2023/01/07 08:20:08;;;;;;;0.80;0.80;;;9.80;99.90;;;;;;4919563;29;20201;-71
2023/01/07 08:22:34;;;;;;;0.90;0.90;;;9.90;99.90;;;;;;4936887;29;20764;-68
2023/01/07 08:25:01;;;;;;;0.70;0.70;;;9.80;99.90;;;;;;4936263;29;20735;-68
2023/01/07 08:27:27;;;;;;;2.55;0.98;;;9.90;99.90;;;;;;4936657;29;20208;-68
2023/01/07 08:29:53;;;;;;;0.93;0.90;;;9.90;99.90;;;;;;4936502;29;20660;-70
2023/01/07 08:32:19;;;;;;;1.30;1.20;;;9.90;99.90;;;;;;4936608;29;20208;-69
2023/01/07 08:34:46;;;;;;;1.33;1.17;;;10.00;99.90;;;;;;4936313;29;20204;-70
2023/01/07 08:37:11;;;;;;;0.98;0.70;;;10.00;99.90;;;;;;4936511;29;20178;-69
2023/01/07 08:39:37;;;;;;;0.67;0.67;;;10.00;99.90;;;;;;4936542;29;20510;-70
2023/01/07 08:42:03;;;;;;;0.77;0.77;;;10.10;99.90;;;;;;4936547;29;20256;-72
2023/01/07 08:44:28;;;;;;;0.97;0.80;;;10.20;99.90;;;;;;4936247;29;20185;-71
2023/01/07 08:46:54;;;;;;;0.80;0.80;;;10.20;99.90;;;;;;4937447;29;20175;-70
2023/01/07 08:49:20;;;;;;;0.90;0.90;;;10.20;99.90;;;;;;4936618;29;20196;-69
2023/01/07 08:51:46;;;;;;;0.83;0.83;;;10.20;99.90;;;;;;4938110;29;20177;-69
2023/01/07 08:54:11;;;;;;;0.97;0.97;;;10.20;99.90;;;;;;4939368;29;20989;-69
2023/01/07 08:56:37;;;;;;;0.80;0.80;;;10.30;99.90;;;;;;4928004;29;20182;-71
2023/01/07 08:59:03;;;;;;;0.80;0.80;;;10.40;99.90;;;;;;4925615;29;20177;-68
2023/01/07 09:01:28;;;;;;;1.77;0.87;;;10.40;99.90;;;;;;4943899;29;20174;-69
2023/01/07 09:03:54;;;;;;;0.67;0.67;;;10.40;99.90;;;;;;4941412;29;20439;-68
2023/01/07 09:06:22;;;;;;;1.30;1.20;;;10.40;99.90;;;;;;4951308;29;20282;-68
2023/01/07 09:08:48;;;;;;;0.70;0.70;;;10.50;99.90;;;;;;4960993;29;20177;-67
2023/01/07 09:11:15;;;;;;;0.98;0.98;;;10.50;99.90;;;;;;4943941;29;20181;-69
2023/01/07 09:13:40;;;;;;;1.00;1.00;;;10.60;99.90;;;;;;4957073;28;20707;-71
2023/01/07 09:16:06;;;;;;;0.80;0.80;;;10.60;99.90;;;;;;4965084;29;20225;-71
2023/01/07 09:18:32;;;;;;;0.80;0.80;;;10.70;99.90;;;;;;4961837;29;20213;-68
2023/01/07 09:20:57;;;;;;;0.70;0.70;;;10.70;99.90;;;;;;4966532;29;20185;-70
2023/01/07 09:23:23;;;;;;;1.00;1.00;;;10.70;99.90;;;;;;4961872;28;20580;-69
2023/01/07 09:25:48;;;;;;;1.00;1.00;;;10.70;99.90;;;;;;4957613;29;20213;-71
2023/01/07 09:28:14;;;;;;;0.93;0.93;;;10.70;99.90;;;;;;4956940;29;20182;-67
2023/01/07 09:30:40;;;;;;;1.20;0.90;;;10.80;99.90;;;;;;4955751;29;20251;-71
2023/01/07 09:33:05;;;;;;;1.40;1.10;;;11.00;99.90;;;;;;4954944;29;20204;-69
2023/01/07 09:35:31;;;;;;;0.87;0.87;;;11.10;99.90;;;;;;4955119;28;20439;-70
2023/01/07 09:37:57;;;;;;;1.40;1.30;;;11.20;99.90;;;;;;4954657;29;20638;-70
2023/01/07 09:40:25;;;;;;;1.07;1.00;;;11.30;99.90;;;;;;4955217;29;20204;-69
2023/01/07 09:43:02;;;;;;;1.17;1.03;;;11.50;99.90;;;;;;4954918;29;20171;-69
2023/01/07 09:45:35;;;;;;;1.50;1.40;;;11.60;99.90;;;;;;4954974;28;20433;-69
2023/01/07 09:48:05;;;;;;;1.47;1.37;;;11.80;99.90;;;;;;4955092;29;20833;-68
2023/01/07 09:50:56;;;;;;;1.93;1.23;;;11.90;99.90;;;;;;4954922;29;21009;-69
2023/01/07 09:53:37;;;;;;;1.40;1.40;;;12.00;99.90;;;;;;4954237;28;20460;-69
2023/01/07 09:56:07;;;;;;;1.10;0.93;;;12.00;99.90;;;;;;4954832;29;20412;-69
2023/01/07 09:58:33;;;;;;;1.23;1.23;;;12.00;99.90;;;;;;4954903;29;20412;-68
2023/01/07 10:01:37;;;;;;;1.43;1.33;;;12.00;99.90;;;;;;4954654;29;20434;-70
2023/01/07 10:04:23;;;;;;;1.30;1.20;;;12.00;99.90;;;;;;4857802;29;20450;-68
2023/01/07 10:06:53;;;;;;;0.90;0.90;;;12.00;99.90;;;;;;4937475;29;20808;-69
2023/01/07 10:09:40;;;;;;;1.60;1.50;;;12.00;99.90;;;;;;4938596;29;20420;-69
2023/01/07 10:12:14;;;;;;;1.70;1.60;;;11.90;99.90;;;;;;4938875;29;20507;-68
2023/01/07 10:14:59;;;;;;;1.77;1.67;;;11.90;99.90;;;;;;4938551;29;20767;-69
2023/01/07 10:18:22;;;;;;;1.67;1.57;;;11.90;99.90;;;;;;4938914;29;20416;-68
2023/01/07 10:20:55;;;;;;;1.60;1.50;;;12.00;99.90;;;;;;4861521;29;20516;-69
2023/01/07 10:23:30;;;;;;;1.70;1.60;;;12.00;99.90;;;;;;4926421;29;20434;-68
2023/01/07 10:25:58;;;;;;;2.13;1.80;;;12.00;99.90;;;;;;4938958;29;20421;-70
2023/01/07 10:28:42;;;;;;;1.30;1.20;;;12.00;99.90;;;;;;4921677;29;20996;-69
2023/01/07 10:31:16;;;;;;;1.93;1.83;;;12.20;99.90;;;;;;4939003;29;20444;-69
2023/01/07 10:33:45;;;;;;;3.07;2.60;;;12.40;99.90;;;;;;4938132;29;20472;-69
2023/01/07 10:36:27;;;;;;;1.70;1.50;;;12.80;99.90;;;;;;4938430;29;20429;-70
2023/01/07 10:38:53;;;;;;;1.87;1.77;;;13.50;99.90;;;;;;4938515;29;20410;-70
2023/01/07 10:41:27;;;;;;;1.70;1.60;;;14.20;99.90;;;;;;4938522;29;20412;-70
2023/01/07 10:43:59;;;;;;;2.20;2.00;;;14.80;99.90;;;;;;4938077;29;20200;-68
2023/01/07 10:46:46;;;;;;;1.83;1.70;;;15.40;99.90;;;;;;4938363;29;20416;-67
2023/01/07 10:49:41;;;;;;;2.43;1.87;;;15.60;99.80;;;;;;4938379;29;21015;-70
2023/01/07 10:52:18;;;;;;;2.43;2.10;;;15.40;99.10;;;;;;4938248;29;20453;-70
2023/01/07 10:55:05;;;;;;;3.77;3.47;;;15.20;99.50;;;;;;4937930;29;20428;-69
2023/01/07 10:57:32;;;;;;;2.10;1.90;;;15.00;99.70;;;;;;4938268;29;20895;-71
2023/01/07 11:00:03;;;;;;;2.30;2.07;;;15.10;99.90;;;;;;4938145;29;20916;-70
2023/01/07 11:02:29;;;;;;;3.27;3.03;;;15.20;99.20;;;;;;4938340;29;20416;-70
2023/01/07 11:04:55;;;;;;;4.53;2.17;;;15.20;98.60;;;;;;4937412;29;20433;-67
2023/01/07 11:07:59;;;;;;;2.37;2.17;;;15.20;99.30;;;;;;4935728;29;20425;-69
2023/01/07 11:10:34;;;;;;;2.30;2.10;;;15.50;99.10;;;;;;4957280;29;20815;-69
2023/01/07 11:13:14;;;;;;;2.07;1.97;;;15.60;98.90;;;;;;4956574;29;20799;-67
2023/01/07 11:15:49;;;;;;;7.00;2.33;;;15.60;98.20;;;;;;4956791;28;20927;-65
2023/01/07 11:18:28;;;;;;;2.80;2.60;;;15.40;97.80;;;;;;4956923;29;20425;-67
2023/01/07 11:20:56;;;;;;;2.80;2.60;;;14.80;98.20;;;;;;4955944;29;20410;-67
2023/01/07 11:23:38;;;;;;;2.50;2.30;;;14.40;98.50;;;;;;4939133;28;20416;-66
2023/01/07 11:26:25;;;;;;;2.60;2.10;;;13.80;99.40;;;;;;4956771;29;20416;-67
2023/01/07 11:29:26;;;;;;;3.43;2.93;;;13.30;99.90;;;;;;4956873;29;20491;-67
2023/01/07 11:31:55;;;;;;;2.63;2.43;;;13.00;99.90;;;;;;4956630;29;20504;-67
2023/01/07 11:34:29;;;;;;;2.63;2.40;;;12.80;99.90;;;;;;4956413;28;20436;-66
2023/01/07 11:36:54;;;;;;;2.80;2.43;;;12.60;99.90;;;;;;4956424;29;20407;-67
2023/01/07 11:39:26;;;;;;;3.30;2.73;;;12.50;99.90;;;;;;4956485;29;20418;-66
2023/01/07 11:41:54;;;;;;;2.23;2.03;;;12.30;99.90;;;;;;4956559;29;20175;-66
2023/01/07 11:44:21;;;;;;;2.13;1.93;;;12.20;99.90;;;;;;4956082;28;20432;-61
2023/01/07 11:46:46;;;;;;;2.40;2.10;;;12.10;99.90;;;;;;4956503;29;20401;-69
2023/01/07 11:49:43;;;;;;;2.33;2.20;;;12.00;99.90;;;;;;4948229;29;20423;-63
2023/01/07 11:52:18;;;;;;;2.37;2.17;;;11.90;99.90;;;;;;4935871;29;20195;-68
2023/01/07 11:54:50;;;;;;;2.13;2.00;;;11.90;99.90;;;;;;4934706;29;20423;-67
2023/01/07 11:57:25;;;;;;;2.27;2.03;;;11.90;99.90;;;;;;4935073;29;20450;-67
2023/01/07 12:00:12;;;;;;;2.70;2.50;;;11.90;99.90;;;;;;4935197;29;20435;-67
2023/01/07 12:02:38;;;;;;;2.50;2.00;;;11.80;99.90;;;;;;4918286;29;20437;-66
2023/01/07 12:05:28;;;;;;;2.30;2.10;;;11.80;99.90;;;;;;4935360;29;20794;-68
2023/01/07 12:07:56;;;;;;;2.60;2.40;;;11.70;99.90;;;;;;4936682;29;20176;-68
2023/01/07 12:10:38;;;;;;;2.67;2.47;;;11.80;99.90;;;;;;4936541;29;20429;-68
2023/01/07 12:13:15;;;;;;;2.10;2.00;;;11.80;99.90;;;;;;4936144;29;20461;-68
2023/01/07 12:15:57;;;;;;;2.13;1.92;;;11.80;99.90;;;;;;4936743;29;20553;-67
2023/01/07 12:18:23;;;;;;;2.10;2.00;;;11.80;99.90;;;;;;4936778;29;20170;-67
2023/01/07 12:21:03;;;;;;;2.43;2.23;;;11.80;99.90;;;;;;4936536;29;20535;-68
2023/01/07 12:23:55;;;;;;;3.33;2.83;;;11.80;99.90;;;;;;4919155;29;20193;-67
2023/01/07 12:26:28;;;;;;;2.13;1.90;;;11.80;99.90;;;;;;4936601;29;20901;-68
2023/01/07 12:29:15;;;;;;;2.60;2.40;;;11.80;99.90;;;;;;4936541;29;20917;-68
2023/01/07 12:32:08;;;;;;;2.42;2.10;;;11.80;99.90;;;;;;4936484;29;20403;-67
2023/01/07 12:35:03;;;;;;;2.65;2.45;;;11.70;99.90;;;;;;4892768;29;20247;-67
2023/01/07 12:37:31;;;;;;;2.03;1.92;;;11.70;99.90;;;;;;4915768;29;20213;-67
2023/01/07 12:40:26;;;;;;;4.70;2.10;;;11.70;99.90;;;;;;4917515;29;20522;-67
2023/01/07 12:42:58;;;;;;;3.85;2.50;;;11.60;99.90;;;;;;4920031;29;20437;-67
2023/01/07 12:45:32;;;;;;;2.97;2.67;;;11.60;99.90;;;;;;4936412;29;20208;-67
2023/01/07 12:48:03;;;;;;;1.75;1.65;;;11.50;99.90;;;;;;4936610;29;20169;-67
2023/01/07 12:50:37;;;;;;;2.78;2.55;;;11.60;99.90;;;;;;4936225;29;20183;-66
2023/01/07 12:53:21;;;;;;;1.95;1.70;;;11.60;99.90;;;;;;4935919;29;20206;-67
2023/01/07 12:55:55;;;;;;;2.30;2.03;;;11.60;99.90;;;;;;4936834;29;20177;-68
2023/01/07 12:58:43;;;;;;;2.53;2.33;;;11.60;99.90;;;;;;4936511;29;20269;-67
2023/01/07 13:01:18;;;;;;;2.42;2.20;;;11.50;99.90;;;;;;4936135;29;20253;-66
2023/01/07 13:03:46;;;;;;;2.72;2.53;;;11.60;99.90;;;;;;4935700;29;20652;-67
2023/01/07 13:06:24;;;;;;;2.45;2.10;;;11.60;99.90;;;;;;4935991;29;20194;-67
2023/01/07 13:09:01;;;;;;;2.00;1.80;;;11.60;99.90;;;;;;4936261;29;20233;-67
2023/01/07 13:14:48;;;;;;;2.53;2.25;;;11.60;99.90;;;;;;4935600;29;20735;-67
2023/01/07 13:17:28;;;;;;;2.58;1.80;;;11.50;99.90;;;;;;4936137;29;20184;-67
2023/01/07 13:19:54;;;;;;;2.20;1.80;;;11.60;99.90;;;;;;4935956;29;20171;-66
2023/01/07 13:22:34;;;;;;;2.20;2.10;;;11.60;99.90;;;;;;4919015;29;20284;-66
2023/01/07 13:25:27;;;;;;;1.92;1.83;;;11.60;99.90;;;;;;4935778;29;20428;-67
2023/01/07 13:28:29;;;;;;;2.47;2.33;;;11.70;99.90;;;;;;4935687;29;20182;-67
2023/01/07 13:31:21;;;;;;;1.97;1.87;;;11.70;99.90;;;;;;4936087;29;20175;-66
2023/01/07 13:33:57;;;;;;;1.83;1.73;;;11.70;99.90;;;;;;4935707;29;20469;-66
2023/01/07 13:36:44;;;;;;;1.80;1.70;;;11.70;99.90;;;;;;4923414;29;20594;-66
2023/01/07 13:39:22;;;;;;;2.50;2.30;;;11.70;99.90;;;;;;4945485;29;20961;-66
2023/01/07 13:42:18;;;;;;;1.97;1.87;;;11.70;99.90;;;;;;4927119;29;20170;-67
2023/01/07 13:44:44;;;;;;;2.65;2.45;;;11.70;99.90;;;;;;4948752;29;20434;-67
2023/01/07 13:47:15;;;;;;;2.27;2.17;;;11.70;99.90;;;;;;4947323;29;20184;-66
2023/01/07 13:49:41;;;;;;;2.85;2.35;;;11.70;99.90;;;;;;4950285;29;20176;-67
2023/01/07 13:52:20;;;;;;;3.03;2.77;;;11.70;99.90;;;;;;4950459;29;20248;-67
2023/01/07 13:54:49;;;;;;;1.92;1.83;;;11.70;99.90;;;;;;4944436;29;20613;-67
2023/01/07 13:57:30;;;;;;;2.20;2.00;;;11.70;99.90;;;;;;4949044;29;20182;-67
2023/01/07 13:59:58;;;;;;;1.77;1.67;;;11.60;99.90;;;;;;4939502;29;20652;-67
2023/01/07 14:02:24;;;;;;;2.22;1.95;;;11.70;99.90;;;;;;4939724;29;20469;-68
2023/01/07 14:05:02;;;;;;;2.20;2.00;;;11.60;99.90;;;;;;4921489;29;20680;-67
2023/01/07 14:07:28;;;;;;;2.50;2.40;;;11.70;99.90;;;;;;4939303;29;20225;-68
2023/01/07 14:09:56;;;;;;;2.80;2.60;;;11.70;99.90;;;;;;4939928;29;20772;-68
2023/01/07 14:12:55;;;;;;;2.08;1.98;;;11.70;99.90;;;;;;4940647;29;20774;-68
2023/01/07 14:15:26;;;;;;;2.63;2.35;;;11.70;99.90;;;;;;4940712;29;20280;-71
2023/01/07 14:18:08;;;;;;;2.13;2.03;;;11.60;99.90;;;;;;4939911;29;20241;-68
2023/01/07 14:21:12;;;;;;;3.00;2.72;;;11.60;99.90;;;;;;4940469;29;20205;-67
2023/01/07 14:23:48;;;;;;;2.05;1.95;;;11.60;99.90;;;;;;4939820;29;20193;-67
2023/01/07 14:26:31;;;;;;;2.33;2.13;;;11.60;99.90;;;;;;4940760;29;20202;-67
2023/01/07 14:29:26;;;;;;;2.22;2.08;;;11.60;99.90;;;;;;4920662;29;20781;-67
2023/01/07 14:32:10;;;;;;;2.28;1.95;;;11.50;99.90;;;;;;4920291;29;20217;-67
2023/01/07 14:34:35;;;;;;;2.47;2.28;;;11.50;99.90;;;;;;4919278;29;20242;-68
2023/01/07 14:37:01;;;;;;;2.50;2.30;;;11.50;99.90;;;;;;4924410;29;20179;-67
2023/01/07 14:39:36;;;;;;;2.60;2.33;;;11.50;99.90;;;;;;4938903;29;20634;-66
2023/01/07 14:42:26;;;;;;;1.88;1.77;;;11.40;99.90;;;;;;4938514;29;20502;-67
2023/01/07 14:44:52;;;;;;;2.67;2.00;;;11.40;99.90;;;;;;4930832;29;20561;-66
2023/01/07 14:47:39;;;;;;;2.00;1.87;;;11.40;99.90;;;;;;4938661;29;20192;-67
2023/01/07 14:50:08;;;;;;;2.00;1.90;;;11.40;99.90;;;;;;4938548;29;20175;-66
2023/01/07 14:52:51;;;;;;;2.20;2.00;;;11.30;99.90;;;;;;4938368;29;20591;-68
2023/01/07 14:55:33;;;;;;;1.95;1.90;;;11.20;99.90;;;;;;4936996;29;20241;-68
2023/01/07 14:58:31;;;;;;;2.25;2.10;;;11.20;99.90;;;;;;4937938;29;20186;-67
2023/01/07 15:01:08;;;;;;;2.30;2.10;;;11.20;99.90;;;;;;4918590;29;20195;-67
2023/01/07 15:04:06;;;;;;;2.50;2.40;;;11.10;99.90;;;;;;4901424;29;20541;-67
2023/01/07 15:06:39;;;;;;;2.40;2.30;;;11.10;99.90;;;;;;4919075;29;20229;-66
2023/01/07 15:17:41;;;;;;;2.20;2.05;;;10.80;99.90;;;;;;4938184;29;20265;-67
2023/01/07 15:20:09;;;;;;;3.38;3.08;;;10.80;99.90;;;;;;4938500;29;20209;-67
2023/01/07 15:22:53;;;;;;;2.78;2.40;;;10.70;99.90;;;;;;4937873;29;20174;-67
2023/01/07 15:25:27;;;;;;;4.30;3.15;;;10.70;99.90;;;;;;4920705;29;20256;-68
2023/01/07 15:28:13;;;;;;;2.58;2.35;;;10.60;99.90;;;;;;4921066;29;20229;-67
2023/01/07 15:30:42;;;;;;;2.78;2.67;;;10.60;99.90;;;;;;4937567;29;20185;-67
2023/01/07 15:33:28;;;;;;;2.90;2.65;;;10.50;99.90;;;;;;4920392;29;20209;-67
2023/01/07 15:35:56;;;;;;;3.15;2.95;;;10.40;99.90;;;;;;4937295;29;20659;-66
2023/01/07 15:38:34;;;;;;;2.88;2.67;;;10.40;99.90;;;;;;4937487;29;20170;-66
2023/01/07 15:40:59;;;;;;;2.95;2.65;;;10.30;99.90;;;;;;4918675;29;20177;-66
2023/01/07 15:43:28;;;;;;;3.03;2.83;;;10.30;99.90;;;;;;4918102;29;20530;-67
2023/01/07 15:46:04;;;;;;;3.22;2.92;;;10.20;99.90;;;;;;4918408;29;20197;-67
2023/01/07 15:48:30;;;;;;;3.85;3.50;;;10.20;99.90;;;;;;4918412;29;20592;-67
2023/01/07 15:50:55;;;;;;;3.17;2.87;;;10.10;99.90;;;;;;4936731;29;20209;-67
2023/01/07 15:53:24;;;;;;;3.40;3.10;;;10.10;99.90;;;;;;4936626;29;20536;-67
2023/01/07 15:55:53;;;;;;;2.50;2.30;;;10.00;99.90;;;;;;4937167;29;20406;-67
2023/01/07 15:58:32;;;;;;;3.28;2.85;;;9.90;99.90;;;;;;4936878;29;20177;-67
2023/01/07 16:00:59;;;;;;;3.13;2.83;;;9.80;99.90;;;;;;4936838;29;20192;-67
2023/01/07 16:03:26;;;;;;;3.20;2.80;;;9.70;99.90;;;;;;4936501;29;20184;-72
2023/01/07 16:05:52;;;;;;;2.95;2.75;;;9.70;99.90;;;;;;4935796;29;20248;-65
2023/01/07 16:08:29;;;;;;;3.30;3.00;;;9.60;99.90;;;;;;4936566;29;20679;-66
2023/01/07 16:10:59;;;;;;;3.33;3.13;;;9.60;99.90;;;;;;4936185;29;20499;-68
2023/01/07 16:13:25;;;;;;;5.57;2.95;;;9.50;99.90;;;;;;4936321;29;20221;-66
2023/01/07 16:15:56;;;;;;;2.30;2.20;;;9.40;99.90;;;;;;4936983;29;20200;-64
2023/01/07 16:18:21;;;;;;;3.08;2.75;;;9.40;99.90;;;;;;4919739;29;20639;-68
2023/01/07 16:21:12;;;;;;;4.07;3.20;;;9.30;99.90;;;;;;4936355;29;20189;-63
2023/01/07 16:23:39;;;;;;;2.92;2.72;;;9.20;99.90;;;;;;4919212;29;20185;-63
2023/01/07 16:26:08;;;;;;;3.55;3.00;;;9.10;99.90;;;;;;4919626;29;20592;-67
2023/01/07 16:28:48;;;;;;;3.30;2.97;;;9.00;99.90;;;;;;4936522;29;20185;-67
2023/01/07 16:31:16;;;;;;;3.15;2.85;;;9.00;99.90;;;;;;4936740;29;20566;-67
2023/01/07 16:33:43;;;;;;;3.38;3.08;;;8.90;99.90;;;;;;4918814;29;20222;-67
2023/01/07 16:36:16;;;;;;;3.22;2.92;;;8.90;99.90;;;;;;4936158;29;20228;-67
2023/01/07 16:38:43;;;;;;;3.42;2.72;;;8.90;99.90;;;;;;4936344;29;20178;-68
2023/01/07 16:41:22;;;;;;;3.50;3.30;;;8.90;99.90;;;;;;4936478;29;20178;-67
2023/01/07 16:43:49;;;;;;;2.55;2.45;;;8.90;99.90;;;;;;4918865;29;20193;-68
2023/01/07 16:46:26;;;;;;;3.83;2.50;;;8.90;99.90;;;;;;4939249;29;20505;-67
2023/01/07 16:49:10;;;;;;;3.85;2.85;;;8.90;99.90;;;;;;4938878;29;20208;-66
2023/01/07 16:52:03;;;;;;;3.83;3.45;;;8.90;99.90;;;;;;4936694;29;20236;-66
2023/01/07 16:54:36;;;;;;;2.60;2.40;;;8.90;99.90;;;;;;4935811;29;20284;-69
2023/01/07 16:57:10;;;;;;;4.00;3.53;;;8.90;99.90;;;;;;4915239;29;20229;-68
2023/01/07 16:59:48;;;;;;;4.70;2.72;;;8.90;99.90;;;;;;4899084;29;20190;-68
2023/01/07 17:02:31;;;;;;;2.70;2.50;;;8.90;99.90;;;;;;4895821;29;20278;-69
2023/01/07 17:05:20;;;;;;;3.63;3.10;;;8.80;99.90;;;;;;4895398;29;20199;-68
2023/01/07 17:08:14;;;;;;;3.88;3.47;;;8.80;99.90;;;;;;4895558;29;20188;-67
2023/01/07 17:10:39;;;;;;;2.85;2.55;;;8.80;99.90;;;;;;4896151;29;20194;-67
2023/01/07 17:13:25;;;;;;;4.40;3.23;;;8.70;99.90;;;;;;4895990;29;20228;-66
2023/01/07 17:16:10;;;;;;;4.32;3.08;;;8.70;99.90;;;;;;4896010;29;20231;-65
2023/01/07 17:18:36;;;;;;;2.85;2.65;;;8.50;99.90;;;;;;4898314;29;20185;-65
2023/01/07 17:21:02;;;;;;;3.13;2.93;;;8.50;99.90;;;;;;4908539;29;20269;-65
2023/01/07 17:23:38;;;;;;;3.77;3.40;;;8.50;99.90;;;;;;4911949;29;20223;-67
2023/01/07 17:26:09;;;;;;;5.53;3.35;;;8.40;99.90;;;;;;4900056;29;20182;-67
2023/01/07 17:28:48;;;;;;;3.83;3.40;;;8.30;99.90;;;;;;4929419;29;20184;-68
2023/01/07 17:31:14;;;;;;;3.45;3.15;;;8.30;99.90;;;;;;4939661;29;20184;-68
2023/01/07 17:33:41;;;;;;;3.95;3.42;;;8.30;99.90;;;;;;4939069;29;20204;-68
2023/01/07 17:36:14;;;;;;;3.58;3.22;;;8.30;99.90;;;;;;4939692;29;20231;-65
2023/01/07 17:38:40;;;;;;;3.65;2.80;;;8.30;99.90;;;;;;4939687;29;20184;-67
2023/01/07 17:43:32;;;;;;;4.13;3.10;;;8.30;99.90;;;;;;4939542;29;20532;-66
2023/01/07 17:43:51;;;;;;;2.70;2.50;;;8.40;99.90;;;;;;4938693;29;20271;-69
2023/01/07 17:46:19;;;;;;;2.97;2.77;;;8.30;99.90;;;;;;4939802;29;20185;-68
2023/01/07 17:48:44;;;;;;;3.70;3.40;;;8.40;99.90;;;;;;4938891;29;20195;-70
2023/01/07 17:51:11;;;;;;;3.90;3.50;;;8.40;99.90;;;;;;4939759;29;20257;-67
2023/01/07 17:53:43;;;;;;;4.15;3.75;;;8.40;99.90;;;;;;4938704;29;20623;-68
2023/01/07 17:56:12;;;;;;;4.72;4.10;;;8.40;99.90;;;;;;4939371;29;20648;-68
2023/01/07 17:58:40;;;;;;;6.97;4.15;;;8.40;99.90;;;;;;4939373;29;20220;-67
2023/01/07 18:01:08;;;;;;;3.70;3.30;;;8.40;99.90;;;;;;4939293;29;20663;-68
2023/01/07 18:03:34;;;;;;;12.50;4.28;;;8.30;99.90;;;;;;4938470;29;20192;-67
2023/01/07 18:06:01;;;;;;;4.88;3.80;;;8.20;99.90;;;;;;4939074;29;20644;-67
2023/01/07 18:08:26;;;;;;;3.78;3.33;;;8.20;99.90;;;;;;4939244;29;20180;-65
2023/01/07 18:13:38;;;;;;;4.45;4.05;;;8.10;99.90;;;;;;4938394;29;20262;-65
2023/01/07 18:16:04;;;;;;;4.50;4.07;;;8.10;99.90;;;;;;4922021;29;20176;-66
2023/01/07 18:18:30;;;;;;;4.70;3.35;;;8.10;99.90;;;;;;4938967;29;20659;-67
2023/01/07 18:20:57;;;;;;;4.97;4.40;;;8.20;99.90;;;;;;4939274;29;20181;-66
2023/01/07 18:23:23;;;;;;;5.68;4.07;;;8.20;99.90;;;;;;4938252;29;20823;-68
2023/01/07 18:25:49;;;;;;;4.32;3.95;;;8.20;99.90;;;;;;4938770;29;20187;-68
2023/01/07 18:28:16;;;;;;;5.03;3.58;;;8.20;99.90;;;;;;4938465;29;20196;-66
2023/01/07 18:30:42;;;;;;;4.55;4.15;;;8.20;99.90;;;;;;4939068;29;20239;-67
2023/01/07 18:33:09;;;;;;;5.00;3.87;;;8.20;99.90;;;;;;4938185;29;20205;-68
2023/01/07 18:35:36;;;;;;;5.50;4.43;;;8.10;99.90;;;;;;4938692;29;20208;-69